sensor_id;sensor_type;location;lat;lon;timestamp;pressure;altitude;pressure_sealevel;temperature;humidity
65832;BME280;52593;42.648;23.332;2022-08-02T00:00:14;94407.81;;;19.48;51.82
65832;BME280;52593;42.648;23.332;2022-08-02T00:02:41;94412.63;;;19.46;52.09
65832;BME280;52593;42.648;23.332;2022-08-02T00:05:07;94411.00;;;19.45;51.00
65832;BME280;52593;42.648;23.332;2022-08-02T00:07:33;94406.00;;;19.54;50.98
65832;BME280;52593;42.648;23.332;2022-08-02T00:09:59;94398.81;;;19.48;48.99
65832;BME280;52593;42.648;23.332;2022-08-02T00:12:24;94400.16;;;19.45;48.42
65832;BME280;52593;42.648;23.332;2022-08-02T00:14:50;94400.28;;;19.38;49.10
65832;BME280;52593;42.648;23.332;2022-08-02T00:17:15;94397.00;;;19.36;48.63
65832;BME280;52593;42.648;23.332;2022-08-02T00:19:41;94398.72;;;19.42;48.65
65832;BME280;52593;42.648;23.332;2022-08-02T00:22:06;94402.63;;;19.47;49.12
65832;BME280;52593;42.648;23.332;2022-08-02T00:24:32;94394.81;;;19.50;47.86
65832;BME280;52593;42.648;23.332;2022-08-02T00:26:58;94402.53;;;19.58;47.60
65832;BME280;52593;42.648;23.332;2022-08-02T00:29:23;94401.97;;;19.56;47.84
65832;BME280;52593;42.648;23.332;2022-08-02T00:31:49;94395.25;;;19.59;48.10
65832;BME280;52593;42.648;23.332;2022-08-02T00:34:14;94390.63;;;19.59;47.96
65832;BME280;52593;42.648;23.332;2022-08-02T00:36:40;94390.22;;;19.68;47.76
65832;BME280;52593;42.648;23.332;2022-08-02T00:39:05;94394.25;;;19.77;48.15
65832;BME280;52593;42.648;23.332;2022-08-02T00:41:31;94391.88;;;19.69;48.04
65832;BME280;52593;42.648;23.332;2022-08-02T00:43:56;94393.91;;;19.61;47.98
65832;BME280;52593;42.648;23.332;2022-08-02T00:46:21;94383.97;;;19.67;48.21
65832;BME280;52593;42.648;23.332;2022-08-02T00:48:47;94387.59;;;19.56;48.79
65832;BME280;52593;42.648;23.332;2022-08-02T00:51:13;94393.78;;;19.68;50.37
65832;BME280;52593;42.648;23.332;2022-08-02T00:53:40;94388.19;;;19.75;49.50
65832;BME280;52593;42.648;23.332;2022-08-02T00:56:05;94385.41;;;19.70;50.23
65832;BME280;52593;42.648;23.332;2022-08-02T00:58:31;94378.13;;;19.58;51.76
65832;BME280;52593;42.648;23.332;2022-08-02T01:00:56;94387.72;;;19.49;51.75
65832;BME280;52593;42.648;23.332;2022-08-02T01:03:25;94387.06;;;19.42;52.58
65832;BME280;52593;42.648;23.332;2022-08-02T01:05:50;94386.94;;;19.37;52.80
65832;BME280;52593;42.648;23.332;2022-08-02T01:08:16;94388.53;;;19.33;52.20
65832;BME280;52593;42.648;23.332;2022-08-02T01:10:41;94386.25;;;19.01;53.56
65832;BME280;52593;42.648;23.332;2022-08-02T01:13:07;94389.78;;;19.01;54.09
65832;BME280;52593;42.648;23.332;2022-08-02T01:15:38;94385.31;;;18.95;54.65
65832;BME280;52593;42.648;23.332;2022-08-02T01:18:07;94385.09;;;18.85;55.59
65832;BME280;52593;42.648;23.332;2022-08-02T01:26:38;94384.91;;;18.39;58.10
65832;BME280;52593;42.648;23.332;2022-08-02T01:29:12;94387.50;;;18.46;58.04
65832;BME280;52593;42.648;23.332;2022-08-02T01:32:15;94397.28;;;18.35;59.14
65832;BME280;52593;42.648;23.332;2022-08-02T01:34:49;94395.50;;;18.29;59.87
65832;BME280;52593;42.648;23.332;2022-08-02T01:39:42;94401.03;;;18.22;59.99
65832;BME280;52593;42.648;23.332;2022-08-02T01:42:09;94399.03;;;18.17;60.15
65832;BME280;52593;42.648;23.332;2022-08-02T01:44:37;94395.63;;;18.10;60.01
65832;BME280;52593;42.648;23.332;2022-08-02T01:47:07;94409.53;;;18.26;59.08
65832;BME280;52593;42.648;23.332;2022-08-02T01:49:34;94401.25;;;18.21;59.33
65832;BME280;52593;42.648;23.332;2022-08-02T01:52:02;94405.75;;;18.27;58.79
65832;BME280;52593;42.648;23.332;2022-08-02T01:55:12;94393.84;;;18.16;58.63
65832;BME280;52593;42.648;23.332;2022-08-02T01:57:46;94403.38;;;18.18;58.60
65832;BME280;52593;42.648;23.332;2022-08-02T02:00:13;94408.31;;;18.10;58.12
65832;BME280;52593;42.648;23.332;2022-08-02T02:02:42;94405.25;;;18.06;58.06
65832;BME280;52593;42.648;23.332;2022-08-02T02:05:17;94408.78;;;18.07;57.92
65832;BME280;52593;42.648;23.332;2022-08-02T02:07:44;94407.25;;;17.99;58.31
65832;BME280;52593;42.648;23.332;2022-08-02T02:10:16;94405.13;;;17.89;58.17
65832;BME280;52593;42.648;23.332;2022-08-02T02:12:43;94412.53;;;17.94;58.58
65832;BME280;52593;42.648;23.332;2022-08-02T02:15:11;94405.94;;;17.90;58.86
65832;BME280;52593;42.648;23.332;2022-08-02T02:17:39;94414.50;;;17.87;58.97
65832;BME280;52593;42.648;23.332;2022-08-02T02:20:08;94405.66;;;17.79;60.11
65832;BME280;52593;42.648;23.332;2022-08-02T02:22:35;94406.56;;;17.61;60.07
65832;BME280;52593;42.648;23.332;2022-08-02T02:25:00;94403.84;;;17.73;60.12
65832;BME280;52593;42.648;23.332;2022-08-02T02:27:26;94398.53;;;17.55;60.48
65832;BME280;52593;42.648;23.332;2022-08-02T02:29:53;94405.88;;;17.66;60.05
65832;BME280;52593;42.648;23.332;2022-08-02T02:32:20;94402.69;;;17.69;60.10
65832;BME280;52593;42.648;23.332;2022-08-02T02:34:50;94419.00;;;17.62;60.19
65832;BME280;52593;42.648;23.332;2022-08-02T02:37:21;94417.59;;;17.60;59.93
65832;BME280;52593;42.648;23.332;2022-08-02T02:39:51;94409.50;;;17.60;60.40
65832;BME280;52593;42.648;23.332;2022-08-02T02:42:22;94408.41;;;17.61;59.95
65832;BME280;52593;42.648;23.332;2022-08-02T02:44:51;94403.84;;;17.61;59.64
65832;BME280;52593;42.648;23.332;2022-08-02T02:47:18;94394.75;;;17.56;59.83
65832;BME280;52593;42.648;23.332;2022-08-02T02:49:45;94405.19;;;17.40;60.24
65832;BME280;52593;42.648;23.332;2022-08-02T02:52:15;94408.22;;;17.32;61.09
65832;BME280;52593;42.648;23.332;2022-08-02T02:54:42;94405.13;;;17.28;60.87
65832;BME280;52593;42.648;23.332;2022-08-02T02:57:09;94409.81;;;17.21;60.95
65832;BME280;52593;42.648;23.332;2022-08-02T02:59:35;94408.28;;;17.25;60.94
65832;BME280;52593;42.648;23.332;2022-08-02T03:02:02;94398.28;;;17.44;60.30
65832;BME280;52593;42.648;23.332;2022-08-02T03:04:29;94402.72;;;17.39;60.69
65832;BME280;52593;42.648;23.332;2022-08-02T03:06:55;94400.19;;;17.25;62.11
65832;BME280;52593;42.648;23.332;2022-08-02T03:09:21;94404.03;;;17.18;62.67
65832;BME280;52593;42.648;23.332;2022-08-02T03:11:46;94409.16;;;17.38;60.92
65832;BME280;52593;42.648;23.332;2022-08-02T03:14:13;94410.19;;;17.25;62.23
65832;BME280;52593;42.648;23.332;2022-08-02T03:16:46;94398.78;;;17.23;61.50
65832;BME280;52593;42.648;23.332;2022-08-02T03:19:12;94407.94;;;17.22;61.89
65832;BME280;52593;42.648;23.332;2022-08-02T03:21:38;94410.63;;;17.22;62.01
65832;BME280;52593;42.648;23.332;2022-08-02T03:24:05;94404.47;;;17.15;61.99
65832;BME280;52593;42.648;23.332;2022-08-02T03:26:31;94407.41;;;17.13;62.47
65832;BME280;52593;42.648;23.332;2022-08-02T03:28:56;94403.91;;;17.13;62.22
65832;BME280;52593;42.648;23.332;2022-08-02T03:31:22;94400.56;;;17.10;62.78
65832;BME280;52593;42.648;23.332;2022-08-02T03:33:48;94407.81;;;17.17;62.34
65832;BME280;52593;42.648;23.332;2022-08-02T03:36:15;94407.13;;;17.03;63.61
65832;BME280;52593;42.648;23.332;2022-08-02T03:38:42;94412.22;;;17.11;62.98
65832;BME280;52593;42.648;23.332;2022-08-02T03:41:10;94400.81;;;16.90;63.68
65832;BME280;52593;42.648;23.332;2022-08-02T03:43:38;94408.31;;;17.07;63.54
65832;BME280;52593;42.648;23.332;2022-08-02T03:46:06;94407.41;;;17.13;63.05
65832;BME280;52593;42.648;23.332;2022-08-02T03:48:32;94409.22;;;17.01;63.88
65832;BME280;52593;42.648;23.332;2022-08-02T03:50:59;94412.25;;;16.92;64.50
65832;BME280;52593;42.648;23.332;2022-08-02T03:53:24;94425.78;;;16.86;64.95
65832;BME280;52593;42.648;23.332;2022-08-02T03:55:50;94429.16;;;16.88;64.76
65832;BME280;52593;42.648;23.332;2022-08-02T03:58:20;94428.25;;;16.94;64.68
65832;BME280;52593;42.648;23.332;2022-08-02T04:00:46;94432.06;;;16.86;64.92
65832;BME280;52593;42.648;23.332;2022-08-02T04:03:12;94430.91;;;16.75;65.58
65832;BME280;52593;42.648;23.332;2022-08-02T04:05:38;94432.81;;;16.93;65.23
65832;BME280;52593;42.648;23.332;2022-08-02T04:08:03;94439.19;;;16.99;65.20
65832;BME280;52593;42.648;23.332;2022-08-02T04:10:29;94439.56;;;17.03;64.84
65832;BME280;52593;42.648;23.332;2022-08-02T04:12:55;94440.63;;;17.02;63.88
65832;BME280;52593;42.648;23.332;2022-08-02T04:15:22;94441.13;;;17.10;63.25
65832;BME280;52593;42.648;23.332;2022-08-02T04:17:55;94450.38;;;17.03;63.48
65832;BME280;52593;42.648;23.332;2022-08-02T04:20:27;94446.09;;;17.14;64.06
65832;BME280;52593;42.648;23.332;2022-08-02T04:22:58;94454.03;;;17.27;62.34
65832;BME280;52593;42.648;23.332;2022-08-02T04:25:25;94451.88;;;17.17;63.06
65832;BME280;52593;42.648;23.332;2022-08-02T04:27:51;94447.28;;;17.18;62.98
65832;BME280;52593;42.648;23.332;2022-08-02T04:30:17;94453.44;;;17.25;62.63
65832;BME280;52593;42.648;23.332;2022-08-02T04:32:44;94450.16;;;17.23;61.72
65832;BME280;52593;42.648;23.332;2022-08-02T04:35:10;94450.00;;;17.18;61.65
65832;BME280;52593;42.648;23.332;2022-08-02T04:37:37;94452.25;;;17.21;61.14
65832;BME280;52593;42.648;23.332;2022-08-02T04:40:07;94444.72;;;17.41;60.24
65832;BME280;52593;42.648;23.332;2022-08-02T04:42:32;94447.13;;;17.31;60.69
65832;BME280;52593;42.648;23.332;2022-08-02T04:44:58;94444.72;;;17.41;61.03
65832;BME280;52593;42.648;23.332;2022-08-02T04:47:23;94449.50;;;17.39;60.75
65832;BME280;52593;42.648;23.332;2022-08-02T04:49:49;94444.31;;;17.38;60.33
65832;BME280;52593;42.648;23.332;2022-08-02T04:52:14;94442.88;;;17.54;59.70
65832;BME280;52593;42.648;23.332;2022-08-02T04:54:39;94445.91;;;18.30;60.09
65832;BME280;52593;42.648;23.332;2022-08-02T04:57:05;94435.75;;;18.84;56.73
65832;BME280;52593;42.648;23.332;2022-08-02T04:59:50;94455.72;;;18.54;56.65
65832;BME280;52593;42.648;23.332;2022-08-02T05:02:15;94447.56;;;18.43;58.49
65832;BME280;52593;42.648;23.332;2022-08-02T05:04:41;94439.91;;;18.75;57.45
65832;BME280;52593;42.648;23.332;2022-08-02T05:07:06;94450.75;;;18.51;58.12
65832;BME280;52593;42.648;23.332;2022-08-02T05:09:32;94444.72;;;18.38;58.43
65832;BME280;52593;42.648;23.332;2022-08-02T05:11:57;94453.81;;;18.43;58.81
65832;BME280;52593;42.648;23.332;2022-08-02T05:14:22;94449.69;;;18.52;57.98
65832;BME280;52593;42.648;23.332;2022-08-02T05:16:48;94449.22;;;18.67;57.20
65832;BME280;52593;42.648;23.332;2022-08-02T05:19:13;94447.59;;;18.90;57.40
65832;BME280;52593;42.648;23.332;2022-08-02T05:21:38;94445.13;;;19.29;55.71
65832;BME280;52593;42.648;23.332;2022-08-02T05:24:04;94457.16;;;19.33;55.68
65832;BME280;52593;42.648;23.332;2022-08-02T05:26:30;94451.09;;;19.43;54.21
65832;BME280;52593;42.648;23.332;2022-08-02T05:28:55;94459.41;;;19.24;55.44
65832;BME280;52593;42.648;23.332;2022-08-02T05:31:21;94463.22;;;19.23;55.74
65832;BME280;52593;42.648;23.332;2022-08-02T05:33:46;94455.19;;;19.17;54.56
65832;BME280;52593;42.648;23.332;2022-08-02T05:36:12;94458.03;;;19.22;53.96
65832;BME280;52593;42.648;23.332;2022-08-02T05:38:38;94461.31;;;19.24;53.35
65832;BME280;52593;42.648;23.332;2022-08-02T05:41:04;94451.03;;;19.26;52.06
65832;BME280;52593;42.648;23.332;2022-08-02T05:43:30;94465.53;;;19.32;52.30
65832;BME280;52593;42.648;23.332;2022-08-02T05:45:55;94464.13;;;19.29;52.20
65832;BME280;52593;42.648;23.332;2022-08-02T05:48:21;94463.94;;;19.48;51.91
65832;BME280;52593;42.648;23.332;2022-08-02T05:50:48;94468.06;;;19.50;51.42
65832;BME280;52593;42.648;23.332;2022-08-02T05:56:25;94460.28;;;19.83;51.21
65832;BME280;52593;42.648;23.332;2022-08-02T05:59:17;94470.56;;;20.09;48.49
65832;BME280;52593;42.648;23.332;2022-08-02T06:01:47;94475.25;;;19.97;48.64
65832;BME280;52593;42.648;23.332;2022-08-02T06:04:24;94471.19;;;20.00;48.81
65832;BME280;52593;42.648;23.332;2022-08-02T06:06:54;94476.63;;;20.00;47.62
65832;BME280;52593;42.648;23.332;2022-08-02T06:09:21;94478.34;;;20.06;47.78
65832;BME280;52593;42.648;23.332;2022-08-02T06:11:50;94480.69;;;20.14;47.77
65832;BME280;52593;42.648;23.332;2022-08-02T06:14:17;94484.66;;;20.23;49.29
65832;BME280;52593;42.648;23.332;2022-08-02T06:16:43;94479.81;;;20.42;48.05
65832;BME280;52593;42.648;23.332;2022-08-02T06:19:11;94482.19;;;20.39;45.38
65832;BME280;52593;42.648;23.332;2022-08-02T06:21:41;94490.16;;;20.28;46.28
65832;BME280;52593;42.648;23.332;2022-08-02T06:24:08;94484.06;;;20.38;46.39
65832;BME280;52593;42.648;23.332;2022-08-02T06:26:35;94485.91;;;20.33;45.68
65832;BME280;52593;42.648;23.332;2022-08-02T06:29:00;94496.41;;;20.12;46.51
65832;BME280;52593;42.648;23.332;2022-08-02T06:31:26;94498.94;;;20.02;46.94
65832;BME280;52593;42.648;23.332;2022-08-02T06:33:52;94495.09;;;20.14;46.55
65832;BME280;52593;42.648;23.332;2022-08-02T06:38:55;94500.16;;;20.57;45.89
65832;BME280;52593;42.648;23.332;2022-08-02T06:41:27;94507.41;;;20.34;45.94
65832;BME280;52593;42.648;23.332;2022-08-02T06:44:02;94503.25;;;20.31;45.97
65832;BME280;52593;42.648;23.332;2022-08-02T06:46:28;94509.50;;;20.32;47.68
65832;BME280;52593;42.648;23.332;2022-08-02T06:48:54;94504.69;;;20.34;46.62
65832;BME280;52593;42.648;23.332;2022-08-02T06:51:20;94502.13;;;20.44;47.20
65832;BME280;52593;42.648;23.332;2022-08-02T06:53:46;94494.78;;;20.45;46.23
65832;BME280;52593;42.648;23.332;2022-08-02T06:56:12;94498.19;;;20.52;46.77
65832;BME280;52593;42.648;23.332;2022-08-02T06:58:37;94497.72;;;20.72;45.96
65832;BME280;52593;42.648;23.332;2022-08-02T07:01:03;94495.25;;;20.71;46.67
65832;BME280;52593;42.648;23.332;2022-08-02T07:03:32;94501.53;;;20.59;46.04
65832;BME280;52593;42.648;23.332;2022-08-02T07:05:58;94501.72;;;20.53;46.04
65832;BME280;52593;42.648;23.332;2022-08-02T07:08:24;94500.81;;;20.47;46.44
65832;BME280;52593;42.648;23.332;2022-08-02T07:10:50;94497.19;;;20.58;47.06
65832;BME280;52593;42.648;23.332;2022-08-02T07:13:16;94492.31;;;20.60;46.93
65832;BME280;52593;42.648;23.332;2022-08-02T07:15:41;94495.75;;;20.67;46.63
65832;BME280;52593;42.648;23.332;2022-08-02T07:18:07;94494.38;;;20.87;46.53
65832;BME280;52593;42.648;23.332;2022-08-02T07:20:37;94499.72;;;20.99;46.05
65832;BME280;52593;42.648;23.332;2022-08-02T07:23:02;94501.47;;;20.88;45.59
65832;BME280;52593;42.648;23.332;2022-08-02T07:25:28;94499.91;;;20.92;46.07
65832;BME280;52593;42.648;23.332;2022-08-02T07:27:54;94488.91;;;21.04;45.92
65832;BME280;52593;42.648;23.332;2022-08-02T07:30:19;94489.41;;;21.18;46.51
65832;BME280;52593;42.648;23.332;2022-08-02T07:32:44;94492.63;;;21.15;46.01
65832;BME280;52593;42.648;23.332;2022-08-02T07:35:10;94490.28;;;21.24;46.26
65832;BME280;52593;42.648;23.332;2022-08-02T07:37:35;94488.19;;;21.31;46.06
65832;BME280;52593;42.648;23.332;2022-08-02T07:40:04;94485.19;;;21.27;46.24
65832;BME280;52593;42.648;23.332;2022-08-02T07:42:30;94490.38;;;21.51;46.25
65832;BME280;52593;42.648;23.332;2022-08-02T07:44:55;94487.03;;;21.66;45.17
65832;BME280;52593;42.648;23.332;2022-08-02T07:47:21;94489.56;;;21.50;44.72
65832;BME280;52593;42.648;23.332;2022-08-02T07:49:46;94491.38;;;21.45;46.11
65832;BME280;52593;42.648;23.332;2022-08-02T07:52:12;94489.38;;;21.57;45.48
65832;BME280;52593;42.648;23.332;2022-08-02T07:54:37;94477.34;;;21.53;45.10
65832;BME280;52593;42.648;23.332;2022-08-02T07:57:03;94488.91;;;21.65;45.19
65832;BME280;52593;42.648;23.332;2022-08-02T07:59:28;94488.66;;;21.67;43.67
65832;BME280;52593;42.648;23.332;2022-08-02T08:01:54;94492.22;;;21.67;44.91
65832;BME280;52593;42.648;23.332;2022-08-02T08:04:20;94487.66;;;21.73;44.20
65832;BME280;52593;42.648;23.332;2022-08-02T08:06:55;94490.75;;;21.82;44.36
65832;BME280;52593;42.648;23.332;2022-08-02T08:09:21;94491.41;;;21.94;44.44
65832;BME280;52593;42.648;23.332;2022-08-02T08:11:47;94486.06;;;21.99;44.07
65832;BME280;52593;42.648;23.332;2022-08-02T08:14:12;94491.28;;;22.06;44.17
65832;BME280;52593;42.648;23.332;2022-08-02T08:16:38;94488.41;;;22.18;43.08
65832;BME280;52593;42.648;23.332;2022-08-02T08:19:03;94491.94;;;22.18;43.18
65832;BME280;52593;42.648;23.332;2022-08-02T08:21:29;94480.06;;;22.30;42.72
65832;BME280;52593;42.648;23.332;2022-08-02T08:23:55;94479.91;;;22.41;43.10
65832;BME280;52593;42.648;23.332;2022-08-02T08:26:21;94480.69;;;22.37;42.48
65832;BME280;52593;42.648;23.332;2022-08-02T08:28:47;94471.66;;;22.31;43.19
65832;BME280;52593;42.648;23.332;2022-08-02T08:31:12;94482.03;;;22.34;42.60
65832;BME280;52593;42.648;23.332;2022-08-02T08:33:38;94479.38;;;22.39;42.74
65832;BME280;52593;42.648;23.332;2022-08-02T08:36:03;94485.72;;;22.50;42.86
65832;BME280;52593;42.648;23.332;2022-08-02T08:38:29;94473.78;;;22.56;42.21
65832;BME280;52593;42.648;23.332;2022-08-02T08:40:54;94480.13;;;22.67;42.51
65832;BME280;52593;42.648;23.332;2022-08-02T08:43:26;94481.94;;;22.89;42.12
65832;BME280;52593;42.648;23.332;2022-08-02T08:45:51;94486.94;;;23.02;42.20
65832;BME280;52593;42.648;23.332;2022-08-02T08:48:17;94476.66;;;23.14;40.94
65832;BME280;52593;42.648;23.332;2022-08-02T08:50:54;94480.22;;;23.15;41.35
65832;BME280;52593;42.648;23.332;2022-08-02T08:53:20;94468.88;;;23.39;40.77
65832;BME280;52593;42.648;23.332;2022-08-02T08:55:48;94472.97;;;23.41;41.13
65832;BME280;52593;42.648;23.332;2022-08-02T08:58:16;94469.44;;;23.46;41.80
65832;BME280;52593;42.648;23.332;2022-08-02T09:00:42;94477.22;;;23.75;40.03
65832;BME280;52593;42.648;23.332;2022-08-02T09:03:08;94477.47;;;23.73;39.57
65832;BME280;52593;42.648;23.332;2022-08-02T09:05:35;94469.84;;;23.80;39.74
65832;BME280;52593;42.648;23.332;2022-08-02T09:08:00;94470.19;;;23.89;40.00
65832;BME280;52593;42.648;23.332;2022-08-02T09:10:37;94473.22;;;24.08;39.55
65832;BME280;52593;42.648;23.332;2022-08-02T09:13:06;94479.50;;;24.03;39.49
65832;BME280;52593;42.648;23.332;2022-08-02T09:15:32;94469.44;;;24.25;39.39
65832;BME280;52593;42.648;23.332;2022-08-02T09:17:59;94471.06;;;24.20;39.45
65832;BME280;52593;42.648;23.332;2022-08-02T09:20:24;94475.44;;;24.21;38.28
65832;BME280;52593;42.648;23.332;2022-08-02T09:23:05;94476.78;;;23.98;38.25
65832;BME280;52593;42.648;23.332;2022-08-02T09:25:30;94470.50;;;24.13;39.11
65832;BME280;52593;42.648;23.332;2022-08-02T09:27:57;94463.97;;;24.30;37.07
65832;BME280;52593;42.648;23.332;2022-08-02T09:30:25;94468.38;;;24.41;37.59
65832;BME280;52593;42.648;23.332;2022-08-02T09:32:51;94460.72;;;24.38;38.34
65832;BME280;52593;42.648;23.332;2022-08-02T09:35:32;94468.34;;;24.51;38.85
65832;BME280;52593;42.648;23.332;2022-08-02T09:38:11;94464.28;;;24.80;37.15
65832;BME280;52593;42.648;23.332;2022-08-02T09:40:38;94460.72;;;24.89;35.82
65832;BME280;52593;42.648;23.332;2022-08-02T09:43:07;94458.78;;;25.00;37.53
65832;BME280;52593;42.648;23.332;2022-08-02T09:45:34;94463.97;;;25.12;36.56
65832;BME280;52593;42.648;23.332;2022-08-02T09:48:01;94463.72;;;25.08;36.65
65832;BME280;52593;42.648;23.332;2022-08-02T09:50:28;94449.22;;;25.03;36.70
65832;BME280;52593;42.648;23.332;2022-08-02T09:52:54;94442.59;;;25.19;37.40
65832;BME280;52593;42.648;23.332;2022-08-02T09:55:21;94444.19;;;25.46;36.96
65832;BME280;52593;42.648;23.332;2022-08-02T09:57:47;94450.75;;;25.45;36.00
65832;BME280;52593;42.648;23.332;2022-08-02T10:00:12;94444.81;;;25.12;36.70
65832;BME280;52593;42.648;23.332;2022-08-02T10:02:38;94452.47;;;25.15;36.82
65832;BME280;52593;42.648;23.332;2022-08-02T10:05:04;94454.94;;;25.12;36.01
65832;BME280;52593;42.648;23.332;2022-08-02T10:07:30;94453.34;;;24.80;36.69
65832;BME280;52593;42.648;23.332;2022-08-02T10:09:56;94450.88;;;24.78;38.77
65832;BME280;52593;42.648;23.332;2022-08-02T10:12:21;94452.47;;;25.15;36.84
65832;BME280;52593;42.648;23.332;2022-08-02T10:14:50;94452.97;;;25.33;37.98
65832;BME280;52593;42.648;23.332;2022-08-02T10:17:17;94449.34;;;25.58;36.73
65832;BME280;52593;42.648;23.332;2022-08-02T10:19:44;94441.19;;;25.97;36.82
65832;BME280;52593;42.648;23.332;2022-08-02T10:22:11;94438.59;;;26.22;36.20
65832;BME280;52593;42.648;23.332;2022-08-02T10:24:38;94440.47;;;26.66;34.59
65832;BME280;52593;42.648;23.332;2022-08-02T10:27:06;94439.78;;;26.50;35.59
65832;BME280;52593;42.648;23.332;2022-08-02T10:29:38;94443.13;;;26.02;34.71
65832;BME280;52593;42.648;23.332;2022-08-02T10:32:12;94443.09;;;25.97;36.30
65832;BME280;52593;42.648;23.332;2022-08-02T10:34:46;94435.16;;;25.95;35.59
65832;BME280;52593;42.648;23.332;2022-08-02T10:37:13;94440.13;;;25.98;36.62
65832;BME280;52593;42.648;23.332;2022-08-02T10:39:41;94443.66;;;25.94;35.32
65832;BME280;52593;42.648;23.332;2022-08-02T10:42:07;94434.63;;;25.93;35.44
65832;BME280;52593;42.648;23.332;2022-08-02T10:44:34;94433.38;;;26.25;35.19
65832;BME280;52593;42.648;23.332;2022-08-02T10:47:20;94436.34;;;26.34;35.04
65832;BME280;52593;42.648;23.332;2022-08-02T10:52:23;94429.19;;;27.02;34.99
65832;BME280;52593;42.648;23.332;2022-08-02T10:54:59;94422.22;;;27.39;33.54
65832;BME280;52593;42.648;23.332;2022-08-02T10:57:27;94425.81;;;27.83;33.15
65832;BME280;52593;42.648;23.332;2022-08-02T11:02:39;94429.72;;;28.20;31.46
65832;BME280;52593;42.648;23.332;2022-08-02T11:05:07;94413.63;;;27.89;33.15
65832;BME280;52593;42.648;23.332;2022-08-02T11:07:37;94425.53;;;27.60;33.37
65832;BME280;52593;42.648;23.332;2022-08-02T11:15:26;94421.63;;;27.42;34.76
65832;BME280;52593;42.648;23.332;2022-08-02T11:17:56;94425.59;;;27.55;34.62
65832;BME280;52593;42.648;23.332;2022-08-02T11:20:25;94424.75;;;27.79;33.25
65832;BME280;52593;42.648;23.332;2022-08-02T11:22:52;94425.81;;;27.83;32.63
65832;BME280;52593;42.648;23.332;2022-08-02T11:30:17;94419.16;;;27.84;32.71
65832;BME280;52593;42.648;23.332;2022-08-02T11:32:43;94425.72;;;27.88;31.98
65832;BME280;52593;42.648;23.332;2022-08-02T11:35:08;94423.38;;;27.57;32.04
65832;BME280;52593;42.648;23.332;2022-08-02T11:37:36;94420.81;;;27.42;32.50
65832;BME280;52593;42.648;23.332;2022-08-02T11:40:14;94412.38;;;27.57;33.11
65832;BME280;52593;42.648;23.332;2022-08-02T11:42:42;94419.94;;;27.46;33.07
65832;BME280;52593;42.648;23.332;2022-08-02T11:45:13;94418.00;;;27.47;34.42
65832;BME280;52593;42.648;23.332;2022-08-02T11:47:52;94419.19;;;27.40;33.53
65832;BME280;52593;42.648;23.332;2022-08-02T11:50:20;94415.91;;;27.38;33.93
65832;BME280;52593;42.648;23.332;2022-08-02T11:52:49;94424.56;;;27.51;33.25
65832;BME280;52593;42.648;23.332;2022-08-02T11:55:15;94416.50;;;27.30;32.00
65832;BME280;52593;42.648;23.332;2022-08-02T11:57:40;94422.97;;;26.91;32.56
65832;BME280;52593;42.648;23.332;2022-08-02T12:00:17;94424.00;;;26.95;32.67
65832;BME280;52593;42.648;23.332;2022-08-02T12:02:46;94425.66;;;26.96;32.46
65832;BME280;52593;42.648;23.332;2022-08-02T12:05:19;94417.09;;;27.03;32.94
65832;BME280;52593;42.648;23.332;2022-08-02T12:07:46;94413.59;;;27.21;33.35
65832;BME280;52593;42.648;23.332;2022-08-02T12:10:17;94401.09;;;27.58;33.08
65832;BME280;52593;42.648;23.332;2022-08-02T12:12:59;94413.38;;;27.42;32.56
65832;BME280;52593;42.648;23.332;2022-08-02T12:15:44;94412.03;;;27.15;33.47
65832;BME280;52593;42.648;23.332;2022-08-02T12:18:16;94412.72;;;27.26;33.11
65832;BME280;52593;42.648;23.332;2022-08-02T12:21:02;94417.41;;;27.50;32.16
65832;BME280;52593;42.648;23.332;2022-08-02T12:23:28;94418.19;;;27.74;32.78
65832;BME280;52593;42.648;23.332;2022-08-02T12:26:02;94408.97;;;28.27;31.50
65832;BME280;52593;42.648;23.332;2022-08-02T12:28:33;94405.34;;;28.65;31.59
65832;BME280;52593;42.648;23.332;2022-08-02T12:30:59;94409.00;;;28.93;31.34
65832;BME280;52593;42.648;23.332;2022-08-02T12:33:27;94407.19;;;28.70;30.22
65832;BME280;52593;42.648;23.332;2022-08-02T12:35:53;94401.81;;;28.78;30.28
65832;BME280;52593;42.648;23.332;2022-08-02T12:38:19;94407.31;;;29.11;31.33
65832;BME280;52593;42.648;23.332;2022-08-02T12:40:45;94402.53;;;29.45;29.79
65832;BME280;52593;42.648;23.332;2022-08-02T12:43:22;94407.31;;;28.78;30.33
65832;BME280;52593;42.648;23.332;2022-08-02T12:45:53;94406.19;;;28.66;30.76
65832;BME280;52593;42.648;23.332;2022-08-02T12:48:33;94412.22;;;28.49;31.10
65832;BME280;52593;42.648;23.332;2022-08-02T12:51:20;94407.63;;;28.44;30.70
65832;BME280;52593;42.648;23.332;2022-08-02T12:53:47;94405.16;;;28.42;32.04
65832;BME280;52593;42.648;23.332;2022-08-02T12:56:32;94399.69;;;28.56;30.16
65832;BME280;52593;42.648;23.332;2022-08-02T12:58:57;94401.28;;;28.43;31.31
65832;BME280;52593;42.648;23.332;2022-08-02T13:01:25;94402.56;;;28.32;31.35
65832;BME280;52593;42.648;23.332;2022-08-02T13:03:52;94404.47;;;27.93;31.50
65832;BME280;52593;42.648;23.332;2022-08-02T13:06:19;94400.66;;;28.14;31.12
65832;BME280;52593;42.648;23.332;2022-08-02T13:08:45;94395.16;;;28.66;30.86
65832;BME280;52593;42.648;23.332;2022-08-02T13:11:10;94393.47;;;28.83;30.27
65832;BME280;52593;42.648;23.332;2022-08-02T13:13:36;94401.31;;;28.57;30.80
65832;BME280;52593;42.648;23.332;2022-08-02T13:16:02;94396.47;;;28.68;31.10
65832;BME280;52593;42.648;23.332;2022-08-02T13:18:27;94404.06;;;28.57;31.63
65832;BME280;52593;42.648;23.332;2022-08-02T13:20:52;94398.19;;;28.97;30.58
65832;BME280;52593;42.648;23.332;2022-08-02T13:23:18;94393.84;;;29.10;30.02